Main page
METAR-TAF:

METAR-TAF

Airports :

Mataveri International Airport

Easter Island, Chile

latitude: 27-09S, longitude: 109-25W, elevation: 51 m

Current weather observation

The report was made 23 minutes ago, at 14:00 UTC
Wind 10 kt from the East
Temperature 17°C
Humidity 68%
Pressure 1028 hPa
Visibility 10 km or more
Scattered clouds at a height of 3500 ft
Scattered clouds at a height of 4000 ft

METAR: SCIP 171400Z 10010KT 9999 SCT035 SCT040 17/11 Q1028 NOSIG

Time: 08:23 (14:23 UTC)

Forecast

The report was made 3 hours and 55 minutes ago, at 10:28 UTC
Forecast valid from 17 at 12 UTC to 18 at 12 UTC
Wind 16 kt from the East/Southeast
Visibility 10 km or more
Scattered clouds at a height of 3000 ft
Becoming
from 17 at 22 UTC to 18 at 00 UTC
Broken clouds at a height of 3000 ft

TAF: SCIP 171028Z 1712/1812 12016KT 9999 SCT030 TN16/1712Z TX21/1720Z BECMG 1722/1800 BKN030

Weather observations and forecasts of more than 4000 airports (METAR and TAF reports).

The available stations are represented by yellow and red dots on the map.

Hover mouse over dot to see the name of the station.

Then click to see weather observations and forecasts.

To change the map : click on the green buttons with a black cross to zoom in, on the green button with a dash to zoom out, or on the green arrows for adjacent maps.


METAR-TAF: